sensor_id;sensor_type;location;lat;lon;timestamp;P1;durP1;ratioP1;P2;durP2;ratioP2
35677;SDS011;21791;42.828;74.582;2022-12-18T00:01:32;54.25;;;29.80;;
35677;SDS011;21791;42.828;74.582;2022-12-18T00:04:01;56.75;;;29.58;;
35677;SDS011;21791;42.828;74.582;2022-12-18T00:06:32;54.10;;;29.63;;
35677;SDS011;21791;42.828;74.582;2022-12-18T00:08:59;49.10;;;27.58;;
35677;SDS011;21791;42.828;74.582;2022-12-18T00:11:27;50.97;;;28.25;;
35677;SDS011;21791;42.828;74.582;2022-12-18T00:13:56;51.30;;;27.70;;
35677;SDS011;21791;42.828;74.582;2022-12-18T00:16:24;51.83;;;27.98;;
35677;SDS011;21791;42.828;74.582;2022-12-18T00:18:52;45.53;;;25.85;;
35677;SDS011;21791;42.828;74.582;2022-12-18T00:21:20;42.83;;;25.38;;
35677;SDS011;21791;42.828;74.582;2022-12-18T00:23:50;45.40;;;24.33;;
35677;SDS011;21791;42.828;74.582;2022-12-18T00:26:17;42.00;;;23.00;;
35677;SDS011;21791;42.828;74.582;2022-12-18T00:28:47;41.28;;;21.80;;
35677;SDS011;21791;42.828;74.582;2022-12-18T00:31:18;45.13;;;23.92;;
35677;SDS011;21791;42.828;74.582;2022-12-18T00:33:47;39.55;;;21.88;;
35677;SDS011;21791;42.828;74.582;2022-12-18T00:36:15;38.08;;;21.35;;
35677;SDS011;21791;42.828;74.582;2022-12-18T00:38:44;41.78;;;22.65;;
35677;SDS011;21791;42.828;74.582;2022-12-18T00:41:12;42.72;;;23.58;;
35677;SDS011;21791;42.828;74.582;2022-12-18T00:44:00;39.13;;;22.42;;
35677;SDS011;21791;42.828;74.582;2022-12-18T00:46:27;41.72;;;22.60;;
35677;SDS011;21791;42.828;74.582;2022-12-18T00:48:53;39.78;;;22.13;;
35677;SDS011;21791;42.828;74.582;2022-12-18T00:51:20;41.63;;;21.80;;
35677;SDS011;21791;42.828;74.582;2022-12-18T00:53:46;37.00;;;21.67;;
35677;SDS011;21791;42.828;74.582;2022-12-18T00:56:13;39.65;;;22.73;;
35677;SDS011;21791;42.828;74.582;2022-12-18T00:58:39;39.85;;;23.35;;
35677;SDS011;21791;42.828;74.582;2022-12-18T01:01:06;36.72;;;21.15;;
35677;SDS011;21791;42.828;74.582;2022-12-18T01:03:34;42.63;;;25.05;;
35677;SDS011;21791;42.828;74.582;2022-12-18T01:06:05;37.05;;;22.52;;
35677;SDS011;21791;42.828;74.582;2022-12-18T01:08:37;39.95;;;23.70;;
35677;SDS011;21791;42.828;74.582;2022-12-18T01:11:07;42.28;;;23.25;;
35677;SDS011;21791;42.828;74.582;2022-12-18T01:13:39;38.17;;;21.67;;
35677;SDS011;21791;42.828;74.582;2022-12-18T01:16:06;40.53;;;24.00;;
35677;SDS011;21791;42.828;74.582;2022-12-18T01:18:34;39.95;;;23.88;;
35677;SDS011;21791;42.828;74.582;2022-12-18T01:21:05;41.58;;;23.23;;
35677;SDS011;21791;42.828;74.582;2022-12-18T01:23:41;43.70;;;23.10;;
35677;SDS011;21791;42.828;74.582;2022-12-18T01:26:09;43.42;;;22.35;;
35677;SDS011;21791;42.828;74.582;2022-12-18T01:28:37;50.00;;;26.80;;
35677;SDS011;21791;42.828;74.582;2022-12-18T01:33:47;56.67;;;30.40;;
35677;SDS011;21791;42.828;74.582;2022-12-18T01:36:23;62.15;;;32.78;;
35677;SDS011;21791;42.828;74.582;2022-12-18T01:38:52;54.17;;;31.38;;
35677;SDS011;21791;42.828;74.582;2022-12-18T01:41:21;54.30;;;33.35;;
35677;SDS011;21791;42.828;74.582;2022-12-18T01:43:56;56.10;;;31.33;;
35677;SDS011;21791;42.828;74.582;2022-12-18T01:46:23;58.17;;;30.30;;
35677;SDS011;21791;42.828;74.582;2022-12-18T01:48:55;54.88;;;29.10;;
35677;SDS011;21791;42.828;74.582;2022-12-18T01:51:24;56.45;;;31.67;;
35677;SDS011;21791;42.828;74.582;2022-12-18T01:53:52;49.97;;;27.73;;
35677;SDS011;21791;42.828;74.582;2022-12-18T01:56:19;47.67;;;28.25;;
35677;SDS011;21791;42.828;74.582;2022-12-18T02:01:28;50.30;;;28.60;;
35677;SDS011;21791;42.828;74.582;2022-12-18T02:03:56;46.38;;;26.90;;
35677;SDS011;21791;42.828;74.582;2022-12-18T02:06:46;51.40;;;27.70;;
35677;SDS011;21791;42.828;74.582;2022-12-18T02:09:25;45.85;;;25.92;;
35677;SDS011;21791;42.828;74.582;2022-12-18T02:12:19;50.65;;;27.25;;
35677;SDS011;21791;42.828;74.582;2022-12-18T02:18:01;58.45;;;30.60;;
35677;SDS011;21791;42.828;74.582;2022-12-18T02:20:40;50.40;;;28.95;;
35677;SDS011;21791;42.828;74.582;2022-12-18T02:28:47;65.63;;;35.13;;
35677;SDS011;21791;42.828;74.582;2022-12-18T02:31:36;60.45;;;31.80;;
35677;SDS011;21791;42.828;74.582;2022-12-18T02:34:18;66.90;;;34.47;;
35677;SDS011;21791;42.828;74.582;2022-12-18T02:36:47;68.32;;;36.88;;
35677;SDS011;21791;42.828;74.582;2022-12-18T02:39:15;64.72;;;35.60;;
35677;SDS011;21791;42.828;74.582;2022-12-18T02:41:43;54.92;;;32.88;;
35677;SDS011;21791;42.828;74.582;2022-12-18T02:44:11;75.85;;;39.15;;
35677;SDS011;21791;42.828;74.582;2022-12-18T02:46:40;75.03;;;38.33;;
35677;SDS011;21791;42.828;74.582;2022-12-18T02:52:18;68.97;;;37.78;;
35677;SDS011;21791;42.828;74.582;2022-12-18T02:55:19;73.07;;;40.50;;
35677;SDS011;21791;42.828;74.582;2022-12-18T03:01:38;68.60;;;39.28;;
35677;SDS011;21791;42.828;74.582;2022-12-18T03:07:05;66.32;;;35.97;;
35677;SDS011;21791;42.828;74.582;2022-12-18T03:09:41;67.70;;;37.92;;
35677;SDS011;21791;42.828;74.582;2022-12-18T03:12:13;56.65;;;32.10;;
35677;SDS011;21791;42.828;74.582;2022-12-18T03:18:04;47.25;;;26.70;;
35677;SDS011;21791;42.828;74.582;2022-12-18T03:20:37;59.65;;;32.47;;
35677;SDS011;21791;42.828;74.582;2022-12-18T03:23:11;58.28;;;32.33;;
35677;SDS011;21791;42.828;74.582;2022-12-18T03:25:42;61.00;;;33.83;;
35677;SDS011;21791;42.828;74.582;2022-12-18T03:28:12;63.85;;;35.42;;
35677;SDS011;21791;42.828;74.582;2022-12-18T03:30:41;115.40;;;50.03;;
35677;SDS011;21791;42.828;74.582;2022-12-18T03:33:18;118.45;;;52.60;;
35677;SDS011;21791;42.828;74.582;2022-12-18T03:35:51;80.25;;;41.50;;
35677;SDS011;21791;42.828;74.582;2022-12-18T03:38:18;94.35;;;46.28;;
35677;SDS011;21791;42.828;74.582;2022-12-18T03:46:55;107.43;;;52.88;;
35677;SDS011;21791;42.828;74.582;2022-12-18T03:54:56;88.57;;;44.35;;
35677;SDS011;21791;42.828;74.582;2022-12-18T03:57:26;77.88;;;41.55;;
35677;SDS011;21791;42.828;74.582;2022-12-18T04:00:05;81.15;;;44.35;;
35677;SDS011;21791;42.828;74.582;2022-12-18T04:02:37;72.72;;;43.42;;
35677;SDS011;21791;42.828;74.582;2022-12-18T04:05:06;71.80;;;43.08;;
35677;SDS011;21791;42.828;74.582;2022-12-18T04:07:35;60.58;;;37.47;;
35677;SDS011;21791;42.828;74.582;2022-12-18T04:10:05;63.05;;;39.38;;
35677;SDS011;21791;42.828;74.582;2022-12-18T04:12:33;53.60;;;34.78;;
35677;SDS011;21791;42.828;74.582;2022-12-18T04:14:59;47.83;;;31.15;;
35677;SDS011;21791;42.828;74.582;2022-12-18T04:17:26;54.90;;;35.35;;
35677;SDS011;21791;42.828;74.582;2022-12-18T04:19:52;58.70;;;39.00;;
35677;SDS011;21791;42.828;74.582;2022-12-18T04:22:19;67.78;;;37.88;;
35677;SDS011;21791;42.828;74.582;2022-12-18T04:24:46;58.15;;;39.85;;
35677;SDS011;21791;42.828;74.582;2022-12-18T04:27:12;62.67;;;41.42;;
35677;SDS011;21791;42.828;74.582;2022-12-18T04:29:39;65.10;;;42.30;;
35677;SDS011;21791;42.828;74.582;2022-12-18T04:32:06;65.13;;;42.58;;
35677;SDS011;21791;42.828;74.582;2022-12-18T04:34:33;65.25;;;42.05;;
35677;SDS011;21791;42.828;74.582;2022-12-18T04:37:00;56.67;;;37.65;;
35677;SDS011;21791;42.828;74.582;2022-12-18T04:39:27;66.18;;;42.72;;
35677;SDS011;21791;42.828;74.582;2022-12-18T04:41:53;66.85;;;42.13;;
35677;SDS011;21791;42.828;74.582;2022-12-18T04:44:20;69.40;;;42.75;;
35677;SDS011;21791;42.828;74.582;2022-12-18T04:46:46;67.05;;;42.92;;
35677;SDS011;21791;42.828;74.582;2022-12-18T04:49:13;65.22;;;42.38;;
35677;SDS011;21791;42.828;74.582;2022-12-18T04:51:40;63.15;;;41.00;;
35677;SDS011;21791;42.828;74.582;2022-12-18T04:54:06;62.63;;;42.28;;
35677;SDS011;21791;42.828;74.582;2022-12-18T04:56:33;64.03;;;40.30;;
35677;SDS011;21791;42.828;74.582;2022-12-18T04:58:59;65.53;;;42.05;;
35677;SDS011;21791;42.828;74.582;2022-12-18T05:01:26;65.35;;;43.08;;
35677;SDS011;21791;42.828;74.582;2022-12-18T05:03:53;65.22;;;42.10;;
35677;SDS011;21791;42.828;74.582;2022-12-18T05:06:19;65.30;;;42.35;;
35677;SDS011;21791;42.828;74.582;2022-12-18T05:08:45;69.00;;;41.78;;
35677;SDS011;21791;42.828;74.582;2022-12-18T05:11:13;57.17;;;39.33;;
35677;SDS011;21791;42.828;74.582;2022-12-18T05:13:43;61.65;;;39.50;;
35677;SDS011;21791;42.828;74.582;2022-12-18T05:16:11;59.65;;;40.63;;
35677;SDS011;21791;42.828;74.582;2022-12-18T05:18:39;65.15;;;42.05;;
35677;SDS011;21791;42.828;74.582;2022-12-18T05:21:06;59.40;;;39.92;;
35677;SDS011;21791;42.828;74.582;2022-12-18T05:23:34;63.67;;;42.92;;
35677;SDS011;21791;42.828;74.582;2022-12-18T05:26:02;61.90;;;40.92;;
35677;SDS011;21791;42.828;74.582;2022-12-18T05:28:31;58.28;;;40.88;;
35677;SDS011;21791;42.828;74.582;2022-12-18T05:30:59;55.50;;;39.60;;
35677;SDS011;21791;42.828;74.582;2022-12-18T05:33:29;62.08;;;43.10;;
35677;SDS011;21791;42.828;74.582;2022-12-18T05:35:58;62.30;;;41.78;;
35677;SDS011;21791;42.828;74.582;2022-12-18T05:38:27;62.38;;;39.95;;
35677;SDS011;21791;42.828;74.582;2022-12-18T05:40:55;64.45;;;43.58;;
35677;SDS011;21791;42.828;74.582;2022-12-18T05:43:22;59.17;;;40.97;;
35677;SDS011;21791;42.828;74.582;2022-12-18T05:45:50;64.43;;;43.28;;
35677;SDS011;21791;42.828;74.582;2022-12-18T05:48:18;62.70;;;41.65;;
35677;SDS011;21791;42.828;74.582;2022-12-18T05:50:45;66.43;;;44.95;;
35677;SDS011;21791;42.828;74.582;2022-12-18T05:53:14;67.07;;;42.92;;
35677;SDS011;21791;42.828;74.582;2022-12-18T05:55:42;62.50;;;43.97;;
35677;SDS011;21791;42.828;74.582;2022-12-18T05:58:11;65.55;;;45.53;;
35677;SDS011;21791;42.828;74.582;2022-12-18T06:00:39;68.07;;;46.97;;
35677;SDS011;21791;42.828;74.582;2022-12-18T06:03:09;64.00;;;43.80;;
35677;SDS011;21791;42.828;74.582;2022-12-18T06:05:37;72.53;;;50.42;;
35677;SDS011;21791;42.828;74.582;2022-12-18T06:08:06;66.80;;;45.70;;
35677;SDS011;21791;42.828;74.582;2022-12-18T06:10:33;67.82;;;48.53;;
35677;SDS011;21791;42.828;74.582;2022-12-18T06:13:00;73.85;;;50.90;;
35677;SDS011;21791;42.828;74.582;2022-12-18T06:15:28;75.22;;;51.67;;
35677;SDS011;21791;42.828;74.582;2022-12-18T06:17:54;76.15;;;51.85;;
35677;SDS011;21791;42.828;74.582;2022-12-18T06:20:21;67.90;;;50.08;;
35677;SDS011;21791;42.828;74.582;2022-12-18T06:22:48;71.05;;;49.30;;
35677;SDS011;21791;42.828;74.582;2022-12-18T06:25:15;75.25;;;51.67;;
35677;SDS011;21791;42.828;74.582;2022-12-18T06:27:42;78.90;;;52.15;;
35677;SDS011;21791;42.828;74.582;2022-12-18T06:30:09;78.65;;;53.03;;
35677;SDS011;21791;42.828;74.582;2022-12-18T06:32:36;81.20;;;54.92;;
35677;SDS011;21791;42.828;74.582;2022-12-18T06:35:03;80.93;;;51.83;;
35677;SDS011;21791;42.828;74.582;2022-12-18T06:37:31;71.90;;;48.30;;
35677;SDS011;21791;42.828;74.582;2022-12-18T06:39:58;80.85;;;49.42;;
35677;SDS011;21791;42.828;74.582;2022-12-18T06:42:26;74.85;;;46.10;;
35677;SDS011;21791;42.828;74.582;2022-12-18T06:44:55;74.07;;;49.60;;
35677;SDS011;21791;42.828;74.582;2022-12-18T06:47:22;78.80;;;49.25;;
35677;SDS011;21791;42.828;74.582;2022-12-18T06:49:48;74.65;;;46.08;;
35677;SDS011;21791;42.828;74.582;2022-12-18T06:52:15;73.32;;;47.42;;
35677;SDS011;21791;42.828;74.582;2022-12-18T06:54:47;75.97;;;47.05;;
35677;SDS011;21791;42.828;74.582;2022-12-18T06:57:17;74.55;;;48.53;;
35677;SDS011;21791;42.828;74.582;2022-12-18T06:59:43;72.47;;;46.50;;
35677;SDS011;21791;42.828;74.582;2022-12-18T07:02:11;70.43;;;46.08;;
35677;SDS011;21791;42.828;74.582;2022-12-18T07:04:37;68.72;;;43.22;;
35677;SDS011;21791;42.828;74.582;2022-12-18T07:07:04;68.60;;;43.20;;
35677;SDS011;21791;42.828;74.582;2022-12-18T07:09:31;65.75;;;42.55;;
35677;SDS011;21791;42.828;74.582;2022-12-18T07:11:58;67.07;;;43.28;;
35677;SDS011;21791;42.828;74.582;2022-12-18T07:14:24;64.93;;;43.08;;
35677;SDS011;21791;42.828;74.582;2022-12-18T07:16:51;67.68;;;44.92;;
35677;SDS011;21791;42.828;74.582;2022-12-18T07:19:18;67.55;;;43.38;;
35677;SDS011;21791;42.828;74.582;2022-12-18T07:21:44;66.80;;;43.05;;
35677;SDS011;21791;42.828;74.582;2022-12-18T07:24:11;64.63;;;42.90;;
35677;SDS011;21791;42.828;74.582;2022-12-18T07:26:38;61.83;;;43.25;;
35677;SDS011;21791;42.828;74.582;2022-12-18T07:29:04;65.20;;;40.10;;
35677;SDS011;21791;42.828;74.582;2022-12-18T07:31:31;58.78;;;41.55;;
35677;SDS011;21791;42.828;74.582;2022-12-18T07:33:57;62.10;;;41.67;;
35677;SDS011;21791;42.828;74.582;2022-12-18T07:36:24;61.17;;;40.28;;
35677;SDS011;21791;42.828;74.582;2022-12-18T07:38:53;64.82;;;41.45;;
35677;SDS011;21791;42.828;74.582;2022-12-18T07:41:20;66.95;;;44.35;;
35677;SDS011;21791;42.828;74.582;2022-12-18T07:43:47;67.60;;;44.25;;
35677;SDS011;21791;42.828;74.582;2022-12-18T07:46:14;77.30;;;45.15;;
35677;SDS011;21791;42.828;74.582;2022-12-18T07:48:41;80.22;;;45.22;;
35677;SDS011;21791;42.828;74.582;2022-12-18T07:51:09;71.07;;;44.50;;
35677;SDS011;21791;42.828;74.582;2022-12-18T07:53:36;71.88;;;46.15;;
35677;SDS011;21791;42.828;74.582;2022-12-18T07:56:03;73.35;;;45.67;;
35677;SDS011;21791;42.828;74.582;2022-12-18T07:58:33;74.20;;;47.30;;
35677;SDS011;21791;42.828;74.582;2022-12-18T08:01:07;117.43;;;70.40;;
35677;SDS011;21791;42.828;74.582;2022-12-18T08:03:36;195.88;;;125.72;;
35677;SDS011;21791;42.828;74.582;2022-12-18T08:06:04;210.77;;;127.20;;
35677;SDS011;21791;42.828;74.582;2022-12-18T08:08:34;211.93;;;134.07;;
35677;SDS011;21791;42.828;74.582;2022-12-18T08:11:01;261.92;;;154.27;;
35677;SDS011;21791;42.828;74.582;2022-12-18T08:13:28;268.95;;;156.68;;
35677;SDS011;21791;42.828;74.582;2022-12-18T08:16:16;268.48;;;158.93;;
35677;SDS011;21791;42.828;74.582;2022-12-18T08:18:42;274.48;;;164.00;;
35677;SDS011;21791;42.828;74.582;2022-12-18T08:21:12;272.27;;;163.75;;
35677;SDS011;21791;42.828;74.582;2022-12-18T08:23:41;268.98;;;160.60;;
35677;SDS011;21791;42.828;74.582;2022-12-18T08:26:09;265.50;;;159.57;;
35677;SDS011;21791;42.828;74.582;2022-12-18T08:28:40;261.85;;;154.82;;
35677;SDS011;21791;42.828;74.582;2022-12-18T08:31:07;256.40;;;155.35;;
35677;SDS011;21791;42.828;74.582;2022-12-18T08:33:35;263.38;;;155.23;;
35677;SDS011;21791;42.828;74.582;2022-12-18T08:36:03;255.18;;;150.45;;
35677;SDS011;21791;42.828;74.582;2022-12-18T08:38:31;271.63;;;153.98;;
35677;SDS011;21791;42.828;74.582;2022-12-18T08:41:07;266.08;;;152.27;;
35677;SDS011;21791;42.828;74.582;2022-12-18T08:43:37;259.63;;;148.15;;
35677;SDS011;21791;42.828;74.582;2022-12-18T08:46:22;274.10;;;148.98;;
35677;SDS011;21791;42.828;74.582;2022-12-18T08:48:51;252.73;;;148.98;;
35677;SDS011;21791;42.828;74.582;2022-12-18T08:51:18;263.65;;;147.10;;
35677;SDS011;21791;42.828;74.582;2022-12-18T08:53:45;253.90;;;144.65;;
35677;SDS011;21791;42.828;74.582;2022-12-18T08:56:12;255.80;;;144.73;;
35677;SDS011;21791;42.828;74.582;2022-12-18T08:58:40;257.67;;;144.88;;
35677;SDS011;21791;42.828;74.582;2022-12-18T09:01:08;262.58;;;143.10;;
35677;SDS011;21791;42.828;74.582;2022-12-18T09:03:36;240.48;;;136.88;;
35677;SDS011;21791;42.828;74.582;2022-12-18T09:06:04;248.15;;;137.70;;
35677;SDS011;21791;42.828;74.582;2022-12-18T09:08:31;242.82;;;134.57;;
35677;SDS011;21791;42.828;74.582;2022-12-18T09:10:58;243.10;;;135.25;;
35677;SDS011;21791;42.828;74.582;2022-12-18T09:13:25;233.55;;;126.25;;
35677;SDS011;21791;42.828;74.582;2022-12-18T09:15:52;222.85;;;123.80;;
35677;SDS011;21791;42.828;74.582;2022-12-18T09:18:21;216.38;;;119.70;;
35677;SDS011;21791;42.828;74.582;2022-12-18T09:20:48;196.40;;;111.10;;
35677;SDS011;21791;42.828;74.582;2022-12-18T09:23:18;197.63;;;107.85;;
35677;SDS011;21791;42.828;74.582;2022-12-18T09:25:46;187.55;;;107.60;;
35677;SDS011;21791;42.828;74.582;2022-12-18T09:28:14;186.80;;;104.57;;
35677;SDS011;21791;42.828;74.582;2022-12-18T09:30:43;196.18;;;102.68;;
35677;SDS011;21791;42.828;74.582;2022-12-18T09:33:12;186.68;;;101.95;;
35677;SDS011;21791;42.828;74.582;2022-12-18T09:35:40;183.77;;;101.03;;
35677;SDS011;21791;42.828;74.582;2022-12-18T09:38:08;197.85;;;104.78;;
35677;SDS011;21791;42.828;74.582;2022-12-18T09:40:42;188.18;;;105.82;;
35677;SDS011;21791;42.828;74.582;2022-12-18T09:43:22;194.90;;;107.10;;
35677;SDS011;21791;42.828;74.582;2022-12-18T09:46:07;205.00;;;109.38;;
35677;SDS011;21791;42.828;74.582;2022-12-18T09:48:42;217.10;;;114.97;;
35677;SDS011;21791;42.828;74.582;2022-12-18T09:51:12;213.85;;;115.50;;
35677;SDS011;21791;42.828;74.582;2022-12-18T09:53:47;225.35;;;121.43;;
35677;SDS011;21791;42.828;74.582;2022-12-18T09:56:19;228.15;;;116.82;;
35677;SDS011;21791;42.828;74.582;2022-12-18T09:58:58;224.95;;;120.30;;
35677;SDS011;21791;42.828;74.582;2022-12-18T10:01:26;220.63;;;119.07;;
35677;SDS011;21791;42.828;74.582;2022-12-18T10:03:54;238.15;;;124.88;;
35677;SDS011;21791;42.828;74.582;2022-12-18T10:06:29;225.30;;;123.65;;
35677;SDS011;21791;42.828;74.582;2022-12-18T10:14:16;240.40;;;128.50;;
35677;SDS011;21791;42.828;74.582;2022-12-18T10:19:48;220.98;;;122.85;;
35677;SDS011;21791;42.828;74.582;2022-12-18T10:25:17;218.25;;;122.43;;
35677;SDS011;21791;42.828;74.582;2022-12-18T10:27:48;219.45;;;121.70;;
35677;SDS011;21791;42.828;74.582;2022-12-18T10:30:23;225.30;;;127.57;;
35677;SDS011;21791;42.828;74.582;2022-12-18T10:32:51;202.45;;;117.72;;
35677;SDS011;21791;42.828;74.582;2022-12-18T10:35:20;218.85;;;119.53;;
35677;SDS011;21791;42.828;74.582;2022-12-18T10:40:32;222.00;;;126.03;;
35677;SDS011;21791;42.828;74.582;2022-12-18T10:43:14;245.98;;;134.88;;
35677;SDS011;21791;42.828;74.582;2022-12-18T10:45:55;241.50;;;133.82;;
35677;SDS011;21791;42.828;74.582;2022-12-18T10:48:31;236.13;;;134.90;;
35677;SDS011;21791;42.828;74.582;2022-12-18T10:51:06;233.90;;;136.60;;
35677;SDS011;21791;42.828;74.582;2022-12-18T10:53:34;246.23;;;139.85;;
35677;SDS011;21791;42.828;74.582;2022-12-18T10:56:03;235.05;;;134.98;;
35677;SDS011;21791;42.828;74.582;2022-12-18T10:58:33;236.30;;;132.32;;
35677;SDS011;21791;42.828;74.582;2022-12-18T11:01:11;218.25;;;134.23;;
35677;SDS011;21791;42.828;74.582;2022-12-18T11:03:41;230.23;;;134.98;;
35677;SDS011;21791;42.828;74.582;2022-12-18T11:06:15;240.43;;;139.57;;
35677;SDS011;21791;42.828;74.582;2022-12-18T11:08:44;224.70;;;135.93;;
35677;SDS011;21791;42.828;74.582;2022-12-18T11:11:24;233.00;;;134.75;;
35677;SDS011;21791;42.828;74.582;2022-12-18T11:13:58;230.48;;;136.63;;
35677;SDS011;21791;42.828;74.582;2022-12-18T11:16:26;247.05;;;145.88;;
35677;SDS011;21791;42.828;74.582;2022-12-18T11:19:13;223.18;;;136.60;;
35677;SDS011;21791;42.828;74.582;2022-12-18T11:22:00;242.18;;;146.70;;
35677;SDS011;21791;42.828;74.582;2022-12-18T11:24:49;244.93;;;141.98;;
35677;SDS011;21791;42.828;74.582;2022-12-18T11:27:35;255.05;;;145.65;;
35677;SDS011;21791;42.828;74.582;2022-12-18T11:30:08;247.68;;;149.85;;
35677;SDS011;21791;42.828;74.582;2022-12-18T11:32:48;252.82;;;151.90;;
35677;SDS011;21791;42.828;74.582;2022-12-18T11:36:03;254.57;;;152.30;;
35677;SDS011;21791;42.828;74.582;2022-12-18T11:38:32;258.15;;;152.68;;
35677;SDS011;21791;42.828;74.582;2022-12-18T11:41:25;288.67;;;169.10;;
35677;SDS011;21791;42.828;74.582;2022-12-18T11:44:22;290.75;;;170.40;;
35677;SDS011;21791;42.828;74.582;2022-12-18T11:47:03;296.17;;;186.35;;
35677;SDS011;21791;42.828;74.582;2022-12-18T11:49:38;301.88;;;182.38;;
35677;SDS011;21791;42.828;74.582;2022-12-18T11:52:19;288.05;;;171.98;;
35677;SDS011;21791;42.828;74.582;2022-12-18T11:54:52;277.15;;;166.82;;
35677;SDS011;21791;42.828;74.582;2022-12-18T12:00:18;279.45;;;164.98;;
35677;SDS011;21791;42.828;74.582;2022-12-18T12:05:31;291.63;;;171.05;;
35677;SDS011;21791;42.828;74.582;2022-12-18T12:13:46;323.77;;;192.18;;
35677;SDS011;21791;42.828;74.582;2022-12-18T12:22:24;301.30;;;175.63;;
35677;SDS011;21791;42.828;74.582;2022-12-18T12:33:32;320.70;;;185.30;;
35677;SDS011;21791;42.828;74.582;2022-12-18T12:36:13;322.50;;;184.40;;
35677;SDS011;21791;42.828;74.582;2022-12-18T12:38:45;305.90;;;174.02;;
35677;SDS011;21791;42.828;74.582;2022-12-18T12:41:18;301.92;;;166.52;;
35677;SDS011;21791;42.828;74.582;2022-12-18T12:44:08;304.17;;;169.30;;
35677;SDS011;21791;42.828;74.582;2022-12-18T12:46:41;294.27;;;167.02;;
35677;SDS011;21791;42.828;74.582;2022-12-18T12:49:18;298.33;;;166.70;;
35677;SDS011;21791;42.828;74.582;2022-12-18T12:52:04;335.00;;;204.73;;
35677;SDS011;21791;42.828;74.582;2022-12-18T12:54:42;343.33;;;195.60;;
35677;SDS011;21791;42.828;74.582;2022-12-18T12:57:16;304.52;;;178.52;;
35677;SDS011;21791;42.828;74.582;2022-12-18T12:59:52;362.92;;;204.70;;
35677;SDS011;21791;42.828;74.582;2022-12-18T13:02:50;331.52;;;187.93;;
35677;SDS011;21791;42.828;74.582;2022-12-18T13:05:40;394.90;;;225.52;;
35677;SDS011;21791;42.828;74.582;2022-12-18T13:08:24;419.65;;;238.93;;
35677;SDS011;21791;42.828;74.582;2022-12-18T13:10:57;418.27;;;236.88;;
35677;SDS011;21791;42.828;74.582;2022-12-18T13:13:52;398.02;;;225.82;;
35677;SDS011;21791;42.828;74.582;2022-12-18T13:16:21;366.02;;;207.93;;
35677;SDS011;21791;42.828;74.582;2022-12-18T13:18:50;355.10;;;208.20;;
35677;SDS011;21791;42.828;74.582;2022-12-18T13:23:49;330.80;;;196.02;;
35677;SDS011;21791;42.828;74.582;2022-12-18T13:33:45;322.27;;;186.13;;
35677;SDS011;21791;42.828;74.582;2022-12-18T13:36:31;342.90;;;195.48;;
35677;SDS011;21791;42.828;74.582;2022-12-18T13:44:37;335.08;;;186.68;;
35677;SDS011;21791;42.828;74.582;2022-12-18T13:47:24;302.45;;;178.02;;
35677;SDS011;21791;42.828;74.582;2022-12-18T13:49:57;310.10;;;179.38;;
35677;SDS011;21791;42.828;74.582;2022-12-18T13:52:29;362.83;;;197.77;;
35677;SDS011;21791;42.828;74.582;2022-12-18T13:55:06;374.33;;;211.30;;
35677;SDS011;21791;42.828;74.582;2022-12-18T13:57:42;351.20;;;197.52;;
35677;SDS011;21791;42.828;74.582;2022-12-18T14:00:28;361.67;;;209.13;;
35677;SDS011;21791;42.828;74.582;2022-12-18T14:02:56;381.10;;;221.52;;
35677;SDS011;21791;42.828;74.582;2022-12-18T14:05:28;410.25;;;241.13;;
35677;SDS011;21791;42.828;74.582;2022-12-18T14:08:01;447.33;;;249.00;;
35677;SDS011;21791;42.828;74.582;2022-12-18T14:10:43;389.40;;;225.60;;
35677;SDS011;21791;42.828;74.582;2022-12-18T14:13:19;344.58;;;198.48;;
35677;SDS011;21791;42.828;74.582;2022-12-18T14:15:53;350.35;;;203.43;;
35677;SDS011;21791;42.828;74.582;2022-12-18T14:26:45;343.15;;;198.95;;
35677;SDS011;21791;42.828;74.582;2022-12-18T14:29:18;330.25;;;193.60;;
35677;SDS011;21791;42.828;74.582;2022-12-18T14:34:47;350.60;;;199.68;;
35677;SDS011;21791;42.828;74.582;2022-12-18T14:37:18;351.42;;;203.10;;
35677;SDS011;21791;42.828;74.582;2022-12-18T14:39:58;339.02;;;194.15;;
35677;SDS011;21791;42.828;74.582;2022-12-18T14:42:26;342.88;;;189.15;;
35677;SDS011;21791;42.828;74.582;2022-12-18T14:47:59;386.38;;;218.90;;
35677;SDS011;21791;42.828;74.582;2022-12-18T14:50:31;328.50;;;188.55;;
35677;SDS011;21791;42.828;74.582;2022-12-18T14:52:58;372.00;;;211.60;;
35677;SDS011;21791;42.828;74.582;2022-12-18T14:55:26;371.52;;;207.43;;
35677;SDS011;21791;42.828;74.582;2022-12-18T14:57:53;336.10;;;185.75;;
35677;SDS011;21791;42.828;74.582;2022-12-18T15:00:22;373.73;;;202.43;;
35677;SDS011;21791;42.828;74.582;2022-12-18T15:02:54;310.13;;;177.80;;
35677;SDS011;21791;42.828;74.582;2022-12-18T15:05:26;340.52;;;185.95;;
35677;SDS011;21791;42.828;74.582;2022-12-18T15:07:56;325.75;;;174.30;;
35677;SDS011;21791;42.828;74.582;2022-12-18T15:10:26;354.50;;;194.05;;
35677;SDS011;21791;42.828;74.582;2022-12-18T15:18:05;372.95;;;210.23;;
35677;SDS011;21791;42.828;74.582;2022-12-18T15:23:19;404.15;;;226.48;;
35677;SDS011;21791;42.828;74.582;2022-12-18T15:36:20;393.98;;;223.82;;
35677;SDS011;21791;42.828;74.582;2022-12-18T15:38:49;514.78;;;271.90;;
35677;SDS011;21791;42.828;74.582;2022-12-18T15:41:20;378.92;;;205.60;;
35677;SDS011;21791;42.828;74.582;2022-12-18T15:43:50;333.33;;;183.23;;
35677;SDS011;21791;42.828;74.582;2022-12-18T15:46:22;338.48;;;179.35;;
35677;SDS011;21791;42.828;74.582;2022-12-18T15:48:52;396.25;;;212.02;;
35677;SDS011;21791;42.828;74.582;2022-12-18T15:51:33;365.83;;;199.43;;
35677;SDS011;21791;42.828;74.582;2022-12-18T15:54:03;420.73;;;230.38;;
35677;SDS011;21791;42.828;74.582;2022-12-18T15:56:35;376.60;;;200.02;;
35677;SDS011;21791;42.828;74.582;2022-12-18T15:59:20;328.15;;;168.63;;
35677;SDS011;21791;42.828;74.582;2022-12-18T16:01:49;491.90;;;252.30;;
35677;SDS011;21791;42.828;74.582;2022-12-18T16:04:25;612.00;;;280.95;;
35677;SDS011;21791;42.828;74.582;2022-12-18T16:06:52;486.35;;;245.88;;
35677;SDS011;21791;42.828;74.582;2022-12-18T16:09:20;559.50;;;267.73;;
35677;SDS011;21791;42.828;74.582;2022-12-18T16:11:47;545.92;;;264.45;;
35677;SDS011;21791;42.828;74.582;2022-12-18T16:16:54;711.55;;;287.48;;
35677;SDS011;21791;42.828;74.582;2022-12-18T16:19:23;468.05;;;239.95;;
35677;SDS011;21791;42.828;74.582;2022-12-18T16:21:54;510.95;;;257.85;;
35677;SDS011;21791;42.828;74.582;2022-12-18T16:24:26;599.97;;;290.83;;
35677;SDS011;21791;42.828;74.582;2022-12-18T16:26:55;525.70;;;261.75;;
35677;SDS011;21791;42.828;74.582;2022-12-18T16:29:23;464.27;;;238.73;;